sensor_id;sensor_type;location;lat;lon;timestamp;P1;durP1;ratioP1;P2;durP2;ratioP2
6832;SDS011;3454;42.654;23.378;2023-11-21T00:00:37;5.87;;;3.37;;
6832;SDS011;3454;42.654;23.378;2023-11-21T00:03:03;7.27;;;3.63;;
6832;SDS011;3454;42.654;23.378;2023-11-21T00:05:29;6.40;;;3.80;;
6832;SDS011;3454;42.654;23.378;2023-11-21T00:07:54;3.63;;;2.70;;
6832;SDS011;3454;42.654;23.378;2023-11-21T00:10:20;3.20;;;2.03;;
6832;SDS011;3454;42.654;23.378;2023-11-21T00:12:45;6.90;;;2.90;;
6832;SDS011;3454;42.654;23.378;2023-11-21T00:15:13;2.73;;;2.00;;
6832;SDS011;3454;42.654;23.378;2023-11-21T00:17:38;4.20;;;1.97;;
6832;SDS011;3454;42.654;23.378;2023-11-21T00:20:07;4.93;;;2.13;;
6832;SDS011;3454;42.654;23.378;2023-11-21T00:22:34;1.73;;;1.30;;
6832;SDS011;3454;42.654;23.378;2023-11-21T00:25:00;3.57;;;2.07;;
6832;SDS011;3454;42.654;23.378;2023-11-21T00:27:26;2.17;;;1.50;;
6832;SDS011;3454;42.654;23.378;2023-11-21T00:29:52;2.53;;;1.83;;
6832;SDS011;3454;42.654;23.378;2023-11-21T00:32:18;2.33;;;1.40;;
6832;SDS011;3454;42.654;23.378;2023-11-21T00:34:44;2.43;;;1.80;;
6832;SDS011;3454;42.654;23.378;2023-11-21T00:37:09;3.37;;;1.87;;
6832;SDS011;3454;42.654;23.378;2023-11-21T00:39:35;6.30;;;1.60;;
6832;SDS011;3454;42.654;23.378;2023-11-21T00:42:00;4.17;;;2.00;;
6832;SDS011;3454;42.654;23.378;2023-11-21T00:44:26;3.70;;;1.90;;
6832;SDS011;3454;42.654;23.378;2023-11-21T00:46:51;4.67;;;2.23;;
6832;SDS011;3454;42.654;23.378;2023-11-21T00:49:16;5.90;;;2.23;;
6832;SDS011;3454;42.654;23.378;2023-11-21T00:51:42;2.30;;;1.60;;
6832;SDS011;3454;42.654;23.378;2023-11-21T00:54:07;2.00;;;1.50;;
6832;SDS011;3454;42.654;23.378;2023-11-21T00:56:33;3.07;;;1.83;;
6832;SDS011;3454;42.654;23.378;2023-11-21T00:58:59;4.03;;;1.90;;
6832;SDS011;3454;42.654;23.378;2023-11-21T01:01:24;3.13;;;1.80;;
6832;SDS011;3454;42.654;23.378;2023-11-21T01:03:50;2.17;;;1.57;;
6832;SDS011;3454;42.654;23.378;2023-11-21T01:06:16;2.57;;;1.53;;
6832;SDS011;3454;42.654;23.378;2023-11-21T01:08:42;3.27;;;1.77;;
6832;SDS011;3454;42.654;23.378;2023-11-21T01:11:09;3.50;;;2.00;;
6832;SDS011;3454;42.654;23.378;2023-11-21T01:13:36;2.63;;;1.67;;
6832;SDS011;3454;42.654;23.378;2023-11-21T01:16:02;3.43;;;1.73;;
6832;SDS011;3454;42.654;23.378;2023-11-21T01:18:29;4.23;;;2.13;;
6832;SDS011;3454;42.654;23.378;2023-11-21T01:20:54;4.50;;;1.87;;
6832;SDS011;3454;42.654;23.378;2023-11-21T01:23:20;3.07;;;1.70;;
6832;SDS011;3454;42.654;23.378;2023-11-21T01:25:45;3.10;;;2.00;;
6832;SDS011;3454;42.654;23.378;2023-11-21T01:28:11;2.10;;;1.90;;
6832;SDS011;3454;42.654;23.378;2023-11-21T01:30:37;3.37;;;2.00;;
6832;SDS011;3454;42.654;23.378;2023-11-21T01:33:02;5.40;;;2.50;;
6832;SDS011;3454;42.654;23.378;2023-11-21T01:35:28;6.40;;;3.17;;
6832;SDS011;3454;42.654;23.378;2023-11-21T01:37:54;5.87;;;3.23;;
6832;SDS011;3454;42.654;23.378;2023-11-21T01:40:19;7.10;;;3.10;;
6832;SDS011;3454;42.654;23.378;2023-11-21T01:42:46;7.20;;;3.50;;
6832;SDS011;3454;42.654;23.378;2023-11-21T01:45:13;7.83;;;3.87;;
6832;SDS011;3454;42.654;23.378;2023-11-21T01:47:40;7.97;;;4.80;;
6832;SDS011;3454;42.654;23.378;2023-11-21T01:50:09;7.83;;;5.10;;
6832;SDS011;3454;42.654;23.378;2023-11-21T01:52:41;8.50;;;5.43;;
6832;SDS011;3454;42.654;23.378;2023-11-21T01:55:09;6.17;;;4.17;;
6832;SDS011;3454;42.654;23.378;2023-11-21T01:57:37;4.70;;;3.40;;
6832;SDS011;3454;42.654;23.378;2023-11-21T02:00:03;10.50;;;6.10;;
6832;SDS011;3454;42.654;23.378;2023-11-21T02:02:47;9.00;;;5.23;;
6832;SDS011;3454;42.654;23.378;2023-11-21T02:05:17;18.27;;;9.70;;
6832;SDS011;3454;42.654;23.378;2023-11-21T02:07:44;21.30;;;11.70;;
6832;SDS011;3454;42.654;23.378;2023-11-21T02:10:12;29.93;;;13.17;;
6832;SDS011;3454;42.654;23.378;2023-11-21T02:12:40;28.17;;;15.13;;
6832;SDS011;3454;42.654;23.378;2023-11-21T02:15:07;40.87;;;19.67;;
6832;SDS011;3454;42.654;23.378;2023-11-21T02:17:43;38.23;;;20.07;;
6832;SDS011;3454;42.654;23.378;2023-11-21T02:20:12;38.83;;;19.30;;
6832;SDS011;3454;42.654;23.378;2023-11-21T02:22:41;33.63;;;17.73;;
6832;SDS011;3454;42.654;23.378;2023-11-21T02:25:07;35.07;;;17.97;;
6832;SDS011;3454;42.654;23.378;2023-11-21T02:27:34;36.97;;;19.37;;
6832;SDS011;3454;42.654;23.378;2023-11-21T02:30:01;37.30;;;18.97;;
6832;SDS011;3454;42.654;23.378;2023-11-21T02:32:29;35.47;;;19.53;;
6832;SDS011;3454;42.654;23.378;2023-11-21T02:34:56;36.37;;;17.23;;
6832;SDS011;3454;42.654;23.378;2023-11-21T02:37:25;37.73;;;16.70;;
6832;SDS011;3454;42.654;23.378;2023-11-21T02:39:51;33.00;;;18.40;;
6832;SDS011;3454;42.654;23.378;2023-11-21T02:42:17;32.30;;;17.77;;
6832;SDS011;3454;42.654;23.378;2023-11-21T02:44:43;32.87;;;17.27;;
6832;SDS011;3454;42.654;23.378;2023-11-21T02:47:09;29.70;;;17.67;;
6832;SDS011;3454;42.654;23.378;2023-11-21T02:49:35;32.07;;;16.00;;
6832;SDS011;3454;42.654;23.378;2023-11-21T02:52:01;21.20;;;11.27;;
6832;SDS011;3454;42.654;23.378;2023-11-21T02:54:27;24.10;;;12.77;;
6832;SDS011;3454;42.654;23.378;2023-11-21T02:56:53;19.40;;;10.13;;
6832;SDS011;3454;42.654;23.378;2023-11-21T02:59:18;17.73;;;9.93;;
6832;SDS011;3454;42.654;23.378;2023-11-21T03:01:44;17.93;;;10.67;;
6832;SDS011;3454;42.654;23.378;2023-11-21T03:04:11;18.03;;;10.03;;
6832;SDS011;3454;42.654;23.378;2023-11-21T03:06:43;17.07;;;9.77;;
6832;SDS011;3454;42.654;23.378;2023-11-21T03:09:09;16.80;;;10.30;;
6832;SDS011;3454;42.654;23.378;2023-11-21T03:11:37;22.73;;;9.40;;
6832;SDS011;3454;42.654;23.378;2023-11-21T03:14:02;20.20;;;10.23;;
6832;SDS011;3454;42.654;23.378;2023-11-21T03:16:28;19.07;;;10.43;;
6832;SDS011;3454;42.654;23.378;2023-11-21T03:18:54;14.43;;;8.80;;
6832;SDS011;3454;42.654;23.378;2023-11-21T03:21:19;21.37;;;9.93;;
6832;SDS011;3454;42.654;23.378;2023-11-21T03:23:45;19.60;;;11.33;;
6832;SDS011;3454;42.654;23.378;2023-11-21T03:26:13;17.80;;;9.87;;
6832;SDS011;3454;42.654;23.378;2023-11-21T03:28:39;20.37;;;11.33;;
6832;SDS011;3454;42.654;23.378;2023-11-21T03:31:05;20.43;;;10.93;;
6832;SDS011;3454;42.654;23.378;2023-11-21T03:33:31;16.00;;;9.80;;
6832;SDS011;3454;42.654;23.378;2023-11-21T03:35:57;21.20;;;11.83;;
6832;SDS011;3454;42.654;23.378;2023-11-21T03:38:23;19.67;;;10.67;;
6832;SDS011;3454;42.654;23.378;2023-11-21T03:40:48;22.83;;;12.07;;
6832;SDS011;3454;42.654;23.378;2023-11-21T03:43:15;23.53;;;11.77;;
6832;SDS011;3454;42.654;23.378;2023-11-21T03:45:41;19.70;;;12.00;;
6832;SDS011;3454;42.654;23.378;2023-11-21T03:48:06;21.67;;;12.57;;
6832;SDS011;3454;42.654;23.378;2023-11-21T03:50:32;20.73;;;11.97;;
6832;SDS011;3454;42.654;23.378;2023-11-21T03:52:58;23.23;;;12.67;;
6832;SDS011;3454;42.654;23.378;2023-11-21T03:55:23;19.80;;;11.17;;
6832;SDS011;3454;42.654;23.378;2023-11-21T03:57:50;17.93;;;8.23;;
6832;SDS011;3454;42.654;23.378;2023-11-21T04:00:16;12.10;;;6.73;;
6832;SDS011;3454;42.654;23.378;2023-11-21T04:02:42;9.63;;;5.27;;
6832;SDS011;3454;42.654;23.378;2023-11-21T04:05:08;6.73;;;4.20;;
6832;SDS011;3454;42.654;23.378;2023-11-21T04:07:34;8.77;;;4.73;;
6832;SDS011;3454;42.654;23.378;2023-11-21T04:10:02;8.93;;;5.20;;
6832;SDS011;3454;42.654;23.378;2023-11-21T04:12:28;9.50;;;4.80;;
6832;SDS011;3454;42.654;23.378;2023-11-21T04:14:53;10.23;;;5.90;;
6832;SDS011;3454;42.654;23.378;2023-11-21T04:17:19;8.40;;;5.03;;
6832;SDS011;3454;42.654;23.378;2023-11-21T04:19:45;8.97;;;5.20;;
6832;SDS011;3454;42.654;23.378;2023-11-21T04:22:11;11.40;;;5.60;;
6832;SDS011;3454;42.654;23.378;2023-11-21T04:24:37;14.63;;;6.33;;
6832;SDS011;3454;42.654;23.378;2023-11-21T04:27:02;8.33;;;5.10;;
6832;SDS011;3454;42.654;23.378;2023-11-21T04:29:27;16.43;;;5.40;;
6832;SDS011;3454;42.654;23.378;2023-11-21T04:31:53;10.97;;;5.47;;
6832;SDS011;3454;42.654;23.378;2023-11-21T04:34:19;9.67;;;6.20;;
6832;SDS011;3454;42.654;23.378;2023-11-21T04:36:44;10.63;;;6.10;;
6832;SDS011;3454;42.654;23.378;2023-11-21T04:39:10;10.60;;;5.47;;
6832;SDS011;3454;42.654;23.378;2023-11-21T04:41:36;10.87;;;5.47;;
6832;SDS011;3454;42.654;23.378;2023-11-21T04:44:04;10.23;;;5.43;;
6832;SDS011;3454;42.654;23.378;2023-11-21T04:46:32;9.73;;;5.27;;
6832;SDS011;3454;42.654;23.378;2023-11-21T04:48:58;9.13;;;5.67;;
6832;SDS011;3454;42.654;23.378;2023-11-21T04:51:24;19.07;;;6.57;;
6832;SDS011;3454;42.654;23.378;2023-11-21T04:53:49;11.80;;;5.70;;
6832;SDS011;3454;42.654;23.378;2023-11-21T04:56:15;10.57;;;5.10;;
6832;SDS011;3454;42.654;23.378;2023-11-21T04:58:41;10.90;;;6.63;;
6832;SDS011;3454;42.654;23.378;2023-11-21T05:01:07;11.37;;;6.13;;
6832;SDS011;3454;42.654;23.378;2023-11-21T05:03:39;11.07;;;6.07;;
6832;SDS011;3454;42.654;23.378;2023-11-21T05:06:06;9.53;;;5.80;;
6832;SDS011;3454;42.654;23.378;2023-11-21T05:08:31;11.17;;;5.83;;
6832;SDS011;3454;42.654;23.378;2023-11-21T05:10:57;11.70;;;6.03;;
6832;SDS011;3454;42.654;23.378;2023-11-21T05:13:22;8.90;;;6.30;;
6832;SDS011;3454;42.654;23.378;2023-11-21T05:15:52;9.47;;;5.80;;
6832;SDS011;3454;42.654;23.378;2023-11-21T05:18:19;11.87;;;6.37;;
6832;SDS011;3454;42.654;23.378;2023-11-21T05:20:44;12.60;;;5.47;;
6832;SDS011;3454;42.654;23.378;2023-11-21T05:23:09;12.93;;;6.53;;
6832;SDS011;3454;42.654;23.378;2023-11-21T05:25:35;10.97;;;6.07;;
6832;SDS011;3454;42.654;23.378;2023-11-21T05:28:01;8.37;;;5.47;;
6832;SDS011;3454;42.654;23.378;2023-11-21T05:30:28;13.83;;;5.43;;
6832;SDS011;3454;42.654;23.378;2023-11-21T05:32:53;7.97;;;4.97;;
6832;SDS011;3454;42.654;23.378;2023-11-21T05:35:19;10.13;;;5.57;;
6832;SDS011;3454;42.654;23.378;2023-11-21T05:37:46;9.07;;;5.33;;
6832;SDS011;3454;42.654;23.378;2023-11-21T05:40:12;9.37;;;5.00;;
6832;SDS011;3454;42.654;23.378;2023-11-21T05:42:38;8.20;;;5.10;;
6832;SDS011;3454;42.654;23.378;2023-11-21T05:45:05;8.63;;;4.00;;
6832;SDS011;3454;42.654;23.378;2023-11-21T05:47:38;6.73;;;4.20;;
6832;SDS011;3454;42.654;23.378;2023-11-21T05:50:08;7.73;;;4.40;;
6832;SDS011;3454;42.654;23.378;2023-11-21T05:52:37;6.57;;;4.07;;
6832;SDS011;3454;42.654;23.378;2023-11-21T05:55:04;10.93;;;4.93;;
6832;SDS011;3454;42.654;23.378;2023-11-21T05:57:32;8.20;;;4.37;;
6832;SDS011;3454;42.654;23.378;2023-11-21T06:00:04;10.03;;;7.20;;
6832;SDS011;3454;42.654;23.378;2023-11-21T06:02:46;20.63;;;10.40;;
6832;SDS011;3454;42.654;23.378;2023-11-21T06:05:12;17.43;;;11.17;;
6832;SDS011;3454;42.654;23.378;2023-11-21T06:07:38;17.67;;;8.63;;
6832;SDS011;3454;42.654;23.378;2023-11-21T06:10:05;15.93;;;8.53;;
6832;SDS011;3454;42.654;23.378;2023-11-21T06:12:35;15.93;;;10.07;;
6832;SDS011;3454;42.654;23.378;2023-11-21T06:15:02;17.20;;;9.33;;
6832;SDS011;3454;42.654;23.378;2023-11-21T06:17:38;25.70;;;11.30;;
6832;SDS011;3454;42.654;23.378;2023-11-21T06:20:10;22.83;;;11.73;;
6832;SDS011;3454;42.654;23.378;2023-11-21T06:22:39;19.47;;;10.93;;
6832;SDS011;3454;42.654;23.378;2023-11-21T06:25:06;20.83;;;10.70;;
6832;SDS011;3454;42.654;23.378;2023-11-21T06:27:36;19.50;;;10.90;;
6832;SDS011;3454;42.654;23.378;2023-11-21T06:30:03;18.60;;;10.63;;
6832;SDS011;3454;42.654;23.378;2023-11-21T06:32:29;21.63;;;10.43;;
6832;SDS011;3454;42.654;23.378;2023-11-21T06:34:55;22.87;;;11.40;;
6832;SDS011;3454;42.654;23.378;2023-11-21T06:37:24;20.27;;;11.00;;
6832;SDS011;3454;42.654;23.378;2023-11-21T06:39:51;23.20;;;11.57;;
6832;SDS011;3454;42.654;23.378;2023-11-21T06:42:17;21.07;;;12.20;;
6832;SDS011;3454;42.654;23.378;2023-11-21T06:44:46;20.77;;;11.63;;
6832;SDS011;3454;42.654;23.378;2023-11-21T06:47:13;31.90;;;11.57;;
6832;SDS011;3454;42.654;23.378;2023-11-21T06:49:40;19.10;;;11.40;;
6832;SDS011;3454;42.654;23.378;2023-11-21T06:52:07;20.67;;;9.93;;
6832;SDS011;3454;42.654;23.378;2023-11-21T06:54:33;15.40;;;10.20;;
6832;SDS011;3454;42.654;23.378;2023-11-21T06:57:00;21.20;;;9.70;;
6832;SDS011;3454;42.654;23.378;2023-11-21T06:59:28;15.27;;;10.40;;
6832;SDS011;3454;42.654;23.378;2023-11-21T07:01:53;14.03;;;8.80;;
6832;SDS011;3454;42.654;23.378;2023-11-21T07:04:19;16.60;;;8.20;;
6832;SDS011;3454;42.654;23.378;2023-11-21T07:06:45;12.30;;;8.60;;
6832;SDS011;3454;42.654;23.378;2023-11-21T07:09:10;15.67;;;8.03;;
6832;SDS011;3454;42.654;23.378;2023-11-21T07:11:36;16.77;;;9.37;;
6832;SDS011;3454;42.654;23.378;2023-11-21T07:14:03;12.40;;;7.93;;
6832;SDS011;3454;42.654;23.378;2023-11-21T07:16:41;15.03;;;7.70;;
6832;SDS011;3454;42.654;23.378;2023-11-21T07:19:07;13.33;;;8.10;;
6832;SDS011;3454;42.654;23.378;2023-11-21T07:21:34;16.27;;;8.70;;
6832;SDS011;3454;42.654;23.378;2023-11-21T07:24:01;17.50;;;9.27;;
6832;SDS011;3454;42.654;23.378;2023-11-21T07:26:27;28.90;;;9.33;;
6832;SDS011;3454;42.654;23.378;2023-11-21T07:28:53;18.87;;;10.73;;
6832;SDS011;3454;42.654;23.378;2023-11-21T07:31:19;13.27;;;9.80;;
6832;SDS011;3454;42.654;23.378;2023-11-21T07:33:45;12.90;;;7.40;;
6832;SDS011;3454;42.654;23.378;2023-11-21T07:36:14;16.27;;;7.27;;
6832;SDS011;3454;42.654;23.378;2023-11-21T07:38:43;15.27;;;9.47;;
6832;SDS011;3454;42.654;23.378;2023-11-21T07:41:15;12.10;;;6.57;;
6832;SDS011;3454;42.654;23.378;2023-11-21T07:43:43;10.77;;;6.73;;
6832;SDS011;3454;42.654;23.378;2023-11-21T07:46:10;12.67;;;7.53;;
6832;SDS011;3454;42.654;23.378;2023-11-21T07:48:38;12.20;;;7.20;;
6832;SDS011;3454;42.654;23.378;2023-11-21T07:51:04;14.40;;;7.30;;
6832;SDS011;3454;42.654;23.378;2023-11-21T07:53:32;14.73;;;7.77;;
6832;SDS011;3454;42.654;23.378;2023-11-21T07:56:04;13.63;;;7.70;;
6832;SDS011;3454;42.654;23.378;2023-11-21T07:58:31;12.17;;;7.80;;
6832;SDS011;3454;42.654;23.378;2023-11-21T08:01:00;11.67;;;8.13;;
6832;SDS011;3454;42.654;23.378;2023-11-21T08:03:26;13.07;;;7.93;;
6832;SDS011;3454;42.654;23.378;2023-11-21T08:05:54;14.03;;;7.13;;
6832;SDS011;3454;42.654;23.378;2023-11-21T08:08:24;11.67;;;7.90;;
6832;SDS011;3454;42.654;23.378;2023-11-21T08:10:50;15.47;;;7.13;;
6832;SDS011;3454;42.654;23.378;2023-11-21T08:13:25;12.20;;;7.20;;
6832;SDS011;3454;42.654;23.378;2023-11-21T08:15:54;17.10;;;6.80;;
6832;SDS011;3454;42.654;23.378;2023-11-21T08:18:21;13.63;;;8.13;;
6832;SDS011;3454;42.654;23.378;2023-11-21T08:20:47;10.93;;;6.80;;
6832;SDS011;3454;42.654;23.378;2023-11-21T08:23:14;23.57;;;6.97;;
6832;SDS011;3454;42.654;23.378;2023-11-21T08:25:42;10.33;;;6.30;;
6832;SDS011;3454;42.654;23.378;2023-11-21T08:28:11;10.83;;;7.17;;
6832;SDS011;3454;42.654;23.378;2023-11-21T08:30:37;17.33;;;8.63;;
6832;SDS011;3454;42.654;23.378;2023-11-21T08:33:03;22.40;;;11.33;;
6832;SDS011;3454;42.654;23.378;2023-11-21T08:35:29;17.63;;;11.37;;
6832;SDS011;3454;42.654;23.378;2023-11-21T08:37:56;18.37;;;10.80;;
6832;SDS011;3454;42.654;23.378;2023-11-21T08:40:22;23.37;;;10.80;;
6832;SDS011;3454;42.654;23.378;2023-11-21T08:42:47;19.70;;;10.30;;
6832;SDS011;3454;42.654;23.378;2023-11-21T08:45:16;21.87;;;11.53;;
6832;SDS011;3454;42.654;23.378;2023-11-21T08:47:42;18.53;;;12.13;;
6832;SDS011;3454;42.654;23.378;2023-11-21T08:50:10;18.17;;;10.40;;
6832;SDS011;3454;42.654;23.378;2023-11-21T08:52:39;23.80;;;12.07;;
6832;SDS011;3454;42.654;23.378;2023-11-21T08:55:05;24.20;;;11.03;;
6832;SDS011;3454;42.654;23.378;2023-11-21T08:57:33;16.37;;;10.83;;
6832;SDS011;3454;42.654;23.378;2023-11-21T09:00:03;17.40;;;10.17;;
6832;SDS011;3454;42.654;23.378;2023-11-21T09:02:32;23.43;;;11.33;;
6832;SDS011;3454;42.654;23.378;2023-11-21T09:04:58;25.07;;;11.97;;
6832;SDS011;3454;42.654;23.378;2023-11-21T09:07:24;23.23;;;13.23;;
6832;SDS011;3454;42.654;23.378;2023-11-21T09:09:50;25.87;;;12.47;;
6832;SDS011;3454;42.654;23.378;2023-11-21T09:12:16;23.63;;;11.10;;
6832;SDS011;3454;42.654;23.378;2023-11-21T09:14:42;26.80;;;12.17;;
6832;SDS011;3454;42.654;23.378;2023-11-21T09:17:09;23.73;;;12.33;;
6832;SDS011;3454;42.654;23.378;2023-11-21T09:19:40;19.57;;;11.50;;
6832;SDS011;3454;42.654;23.378;2023-11-21T09:22:06;19.73;;;11.43;;
6832;SDS011;3454;42.654;23.378;2023-11-21T09:24:35;18.30;;;10.87;;
6832;SDS011;3454;42.654;23.378;2023-11-21T09:27:01;20.20;;;10.90;;
6832;SDS011;3454;42.654;23.378;2023-11-21T09:29:27;22.17;;;12.33;;
6832;SDS011;3454;42.654;23.378;2023-11-21T09:31:52;21.07;;;12.30;;
6832;SDS011;3454;42.654;23.378;2023-11-21T09:34:20;22.07;;;11.67;;
6832;SDS011;3454;42.654;23.378;2023-11-21T09:36:48;28.57;;;13.63;;
6832;SDS011;3454;42.654;23.378;2023-11-21T09:39:13;28.93;;;13.20;;
6832;SDS011;3454;42.654;23.378;2023-11-21T09:41:43;20.93;;;12.33;;
6832;SDS011;3454;42.654;23.378;2023-11-21T09:44:14;19.83;;;12.70;;
6832;SDS011;3454;42.654;23.378;2023-11-21T09:46:43;22.70;;;12.70;;
6832;SDS011;3454;42.654;23.378;2023-11-21T09:49:13;18.87;;;12.00;;
6832;SDS011;3454;42.654;23.378;2023-11-21T09:51:44;22.57;;;13.37;;
6832;SDS011;3454;42.654;23.378;2023-11-21T09:54:12;26.63;;;12.87;;
6832;SDS011;3454;42.654;23.378;2023-11-21T09:56:41;24.43;;;12.80;;
6832;SDS011;3454;42.654;23.378;2023-11-21T09:59:07;22.00;;;13.30;;
6832;SDS011;3454;42.654;23.378;2023-11-21T10:01:38;20.50;;;11.63;;
6832;SDS011;3454;42.654;23.378;2023-11-21T10:04:05;20.80;;;12.73;;
6832;SDS011;3454;42.654;23.378;2023-11-21T10:06:40;20.33;;;12.57;;
6832;SDS011;3454;42.654;23.378;2023-11-21T10:09:12;17.97;;;11.00;;
6832;SDS011;3454;42.654;23.378;2023-11-21T10:11:43;22.47;;;11.77;;
6832;SDS011;3454;42.654;23.378;2023-11-21T10:14:12;17.63;;;10.67;;
6832;SDS011;3454;42.654;23.378;2023-11-21T10:16:39;23.77;;;11.33;;
6832;SDS011;3454;42.654;23.378;2023-11-21T10:19:06;23.23;;;11.90;;
6832;SDS011;3454;42.654;23.378;2023-11-21T10:21:35;18.33;;;11.07;;
6832;SDS011;3454;42.654;23.378;2023-11-21T10:24:02;17.67;;;10.43;;
6832;SDS011;3454;42.654;23.378;2023-11-21T10:26:29;16.50;;;9.27;;
6832;SDS011;3454;42.654;23.378;2023-11-21T10:29:01;12.18;;;7.95;;
6832;SDS011;3454;42.654;23.378;2023-11-21T10:31:31;17.38;;;11.35;;
6832;SDS011;3454;42.654;23.378;2023-11-21T10:34:17;22.30;;;10.95;;
6832;SDS011;3454;42.654;23.378;2023-11-21T10:36:43;16.88;;;10.75;;
6832;SDS011;3454;42.654;23.378;2023-11-21T10:39:13;16.45;;;9.15;;
6832;SDS011;3454;42.654;23.378;2023-11-21T10:41:43;17.63;;;9.27;;
6832;SDS011;3454;42.654;23.378;2023-11-21T10:44:15;19.38;;;10.18;;
6832;SDS011;3454;42.654;23.378;2023-11-21T10:46:51;19.73;;;11.20;;
6832;SDS011;3454;42.654;23.378;2023-11-21T10:49:26;18.17;;;10.65;;
6832;SDS011;3454;42.654;23.378;2023-11-21T10:51:52;16.42;;;9.82;;
6832;SDS011;3454;42.654;23.378;2023-11-21T10:54:23;14.15;;;9.70;;
6832;SDS011;3454;42.654;23.378;2023-11-21T10:56:53;15.88;;;8.65;;
6832;SDS011;3454;42.654;23.378;2023-11-21T10:59:22;16.17;;;10.15;;
6832;SDS011;3454;42.654;23.378;2023-11-21T11:01:51;15.40;;;9.57;;
6832;SDS011;3454;42.654;23.378;2023-11-21T11:04:18;15.02;;;9.35;;
6832;SDS011;3454;42.654;23.378;2023-11-21T11:06:44;16.92;;;9.50;;
6832;SDS011;3454;42.654;23.378;2023-11-21T11:09:34;16.45;;;9.80;;
6832;SDS011;3454;42.654;23.378;2023-11-21T11:12:03;14.93;;;9.82;;
6832;SDS011;3454;42.654;23.378;2023-11-21T11:14:29;16.20;;;8.30;;
6832;SDS011;3454;42.654;23.378;2023-11-21T11:16:57;11.38;;;8.82;;
6832;SDS011;3454;42.654;23.378;2023-11-21T11:19:24;14.63;;;9.70;;
6832;SDS011;3454;42.654;23.378;2023-11-21T11:24:35;16.30;;;8.90;;
6832;SDS011;3454;42.654;23.378;2023-11-21T11:27:29;15.07;;;8.93;;
6832;SDS011;3454;42.654;23.378;2023-11-21T11:32:46;20.30;;;10.10;;
6832;SDS011;3454;42.654;23.378;2023-11-21T11:35:26;19.43;;;10.67;;
6832;SDS011;3454;42.654;23.378;2023-11-21T11:38:01;16.53;;;10.37;;
6832;SDS011;3454;42.654;23.378;2023-11-21T11:40:47;16.47;;;9.60;;
6832;SDS011;3454;42.654;23.378;2023-11-21T11:43:12;13.87;;;8.80;;
6832;SDS011;3454;42.654;23.378;2023-11-21T11:45:38;20.50;;;10.43;;
6832;SDS011;3454;42.654;23.378;2023-11-21T11:48:06;21.30;;;10.30;;
6832;SDS011;3454;42.654;23.378;2023-11-21T11:50:32;15.87;;;9.83;;
6832;SDS011;3454;42.654;23.378;2023-11-21T11:53:15;17.10;;;9.67;;
6832;SDS011;3454;42.654;23.378;2023-11-21T11:55:43;17.20;;;10.27;;
6832;SDS011;3454;42.654;23.378;2023-11-21T11:58:08;20.07;;;10.97;;
6832;SDS011;3454;42.654;23.378;2023-11-21T12:00:34;18.83;;;12.00;;
6832;SDS011;3454;42.654;23.378;2023-11-21T12:03:03;19.53;;;11.00;;
6832;SDS011;3454;42.654;23.378;2023-11-21T12:05:34;20.03;;;10.50;;
6832;SDS011;3454;42.654;23.378;2023-11-21T12:08:04;17.43;;;10.43;;
6832;SDS011;3454;42.654;23.378;2023-11-21T12:10:32;16.60;;;11.10;;
6832;SDS011;3454;42.654;23.378;2023-11-21T12:13:00;18.53;;;11.80;;
6832;SDS011;3454;42.654;23.378;2023-11-21T12:15:27;21.03;;;12.57;;
6832;SDS011;3454;42.654;23.378;2023-11-21T12:17:56;18.03;;;11.53;;
6832;SDS011;3454;42.654;23.378;2023-11-21T12:20:23;19.53;;;12.67;;
6832;SDS011;3454;42.654;23.378;2023-11-21T12:22:50;23.87;;;14.03;;
6832;SDS011;3454;42.654;23.378;2023-11-21T12:25:18;28.30;;;15.13;;
6832;SDS011;3454;42.654;23.378;2023-11-21T12:27:49;21.90;;;13.43;;
6832;SDS011;3454;42.654;23.378;2023-11-21T12:30:17;25.93;;;15.13;;
6832;SDS011;3454;42.654;23.378;2023-11-21T12:32:50;23.50;;;14.10;;
6832;SDS011;3454;42.654;23.378;2023-11-21T12:35:17;31.70;;;13.87;;
6832;SDS011;3454;42.654;23.378;2023-11-21T12:37:44;23.63;;;14.00;;
6832;SDS011;3454;42.654;23.378;2023-11-21T12:40:12;22.57;;;14.57;;
6832;SDS011;3454;42.654;23.378;2023-11-21T12:42:46;30.53;;;15.07;;
6832;SDS011;3454;42.654;23.378;2023-11-21T12:47:46;29.83;;;16.80;;
6832;SDS011;3454;42.654;23.378;2023-11-21T12:50:15;29.23;;;18.00;;
6832;SDS011;3454;42.654;23.378;2023-11-21T12:52:45;32.07;;;17.83;;
6832;SDS011;3454;42.654;23.378;2023-11-21T12:55:17;29.63;;;19.07;;
6832;SDS011;3454;42.654;23.378;2023-11-21T12:57:47;33.07;;;18.87;;
6832;SDS011;3454;42.654;23.378;2023-11-21T13:00:17;28.00;;;18.43;;
6832;SDS011;3454;42.654;23.378;2023-11-21T13:02:53;30.77;;;16.70;;
6832;SDS011;3454;42.654;23.378;2023-11-21T13:05:26;33.73;;;17.47;;
6832;SDS011;3454;42.654;23.378;2023-11-21T13:08:07;34.83;;;17.23;;
6832;SDS011;3454;42.654;23.378;2023-11-21T13:10:35;33.77;;;19.03;;
6832;SDS011;3454;42.654;23.378;2023-11-21T13:13:02;31.80;;;17.83;;
6832;SDS011;3454;42.654;23.378;2023-11-21T13:15:31;35.17;;;18.73;;
6832;SDS011;3454;42.654;23.378;2023-11-21T13:17:58;31.40;;;16.93;;
6832;SDS011;3454;42.654;23.378;2023-11-21T13:20:24;29.00;;;16.87;;
6832;SDS011;3454;42.654;23.378;2023-11-21T13:22:51;33.77;;;17.73;;
6832;SDS011;3454;42.654;23.378;2023-11-21T13:25:25;29.17;;;17.33;;
6832;SDS011;3454;42.654;23.378;2023-11-21T13:27:54;30.43;;;17.33;;
6832;SDS011;3454;42.654;23.378;2023-11-21T13:30:20;27.00;;;16.80;;
6832;SDS011;3454;42.654;23.378;2023-11-21T13:33:04;28.83;;;17.73;;
6832;SDS011;3454;42.654;23.378;2023-11-21T13:38:15;27.93;;;16.93;;
6832;SDS011;3454;42.654;23.378;2023-11-21T13:40:46;29.53;;;17.40;;
6832;SDS011;3454;42.654;23.378;2023-11-21T13:43:15;40.50;;;18.37;;
6832;SDS011;3454;42.654;23.378;2023-11-21T13:45:44;32.00;;;17.10;;
6832;SDS011;3454;42.654;23.378;2023-11-21T13:48:11;26.70;;;16.93;;
6832;SDS011;3454;42.654;23.378;2023-11-21T13:50:53;30.60;;;18.03;;
6832;SDS011;3454;42.654;23.378;2023-11-21T13:53:38;29.57;;;17.80;;
6832;SDS011;3454;42.654;23.378;2023-11-21T13:56:06;27.47;;;17.03;;
6832;SDS011;3454;42.654;23.378;2023-11-21T13:58:32;28.77;;;17.13;;
6832;SDS011;3454;42.654;23.378;2023-11-21T14:01:15;26.87;;;17.33;;
6832;SDS011;3454;42.654;23.378;2023-11-21T14:04:04;25.77;;;16.83;;
6832;SDS011;3454;42.654;23.378;2023-11-21T14:06:43;27.33;;;16.40;;
6832;SDS011;3454;42.654;23.378;2023-11-21T14:09:19;26.23;;;17.30;;
6832;SDS011;3454;42.654;23.378;2023-11-21T14:11:58;24.43;;;16.67;;
6832;SDS011;3454;42.654;23.378;2023-11-21T14:14:26;28.10;;;16.47;;
6832;SDS011;3454;42.654;23.378;2023-11-21T14:16:57;27.43;;;16.37;;
6832;SDS011;3454;42.654;23.378;2023-11-21T14:19:24;27.33;;;16.00;;
6832;SDS011;3454;42.654;23.378;2023-11-21T14:21:55;22.73;;;15.17;;
6832;SDS011;3454;42.654;23.378;2023-11-21T14:24:21;23.17;;;16.33;;
6832;SDS011;3454;42.654;23.378;2023-11-21T14:26:48;29.07;;;16.90;;
6832;SDS011;3454;42.654;23.378;2023-11-21T14:29:15;28.47;;;16.60;;
6832;SDS011;3454;42.654;23.378;2023-11-21T14:31:48;32.73;;;16.67;;
6832;SDS011;3454;42.654;23.378;2023-11-21T14:34:21;32.40;;;16.50;;
6832;SDS011;3454;42.654;23.378;2023-11-21T14:36:47;31.30;;;17.20;;
6832;SDS011;3454;42.654;23.378;2023-11-21T14:39:15;33.27;;;17.73;;
6832;SDS011;3454;42.654;23.378;2023-11-21T14:41:49;31.10;;;18.07;;
6832;SDS011;3454;42.654;23.378;2023-11-21T14:44:15;33.20;;;18.43;;
6832;SDS011;3454;42.654;23.378;2023-11-21T14:46:40;31.73;;;18.87;;
6832;SDS011;3454;42.654;23.378;2023-11-21T14:49:17;30.40;;;17.77;;
6832;SDS011;3454;42.654;23.378;2023-11-21T14:51:51;35.93;;;19.10;;
6832;SDS011;3454;42.654;23.378;2023-11-21T14:54:21;29.90;;;18.57;;
6832;SDS011;3454;42.654;23.378;2023-11-21T14:57:03;38.17;;;19.57;;
6832;SDS011;3454;42.654;23.378;2023-11-21T14:59:34;40.20;;;21.50;;